sensor_id;sensor_type;location;lat;lon;timestamp;pressure;altitude;pressure_sealevel;temperature;humidity
48035;BME280;33812;46.480;6.834;2023-03-14T00:03:16;92639.63;;;21.10;40.79
48035;BME280;33812;46.480;6.834;2023-03-14T00:07:18;92660.06;;;21.13;40.68
48035;BME280;33812;46.480;6.834;2023-03-14T00:11:23;92675.56;;;21.10;40.84
48035;BME280;33812;46.480;6.834;2023-03-14T00:15:26;92678.94;;;21.14;40.69
48035;BME280;33812;46.480;6.834;2023-03-14T00:19:32;92672.31;;;21.12;40.64
48035;BME280;33812;46.480;6.834;2023-03-14T00:23:44;92670.81;;;21.11;40.83
48035;BME280;33812;46.480;6.834;2023-03-14T00:27:46;92690.16;;;21.11;40.90
48035;BME280;33812;46.480;6.834;2023-03-14T00:31:57;92664.50;;;21.10;40.65
48035;BME280;33812;46.480;6.834;2023-03-14T00:36:04;92649.94;;;21.10;40.89
48035;BME280;33812;46.480;6.834;2023-03-14T00:40:08;92657.75;;;21.11;40.97
48035;BME280;33812;46.480;6.834;2023-03-14T00:44:12;92672.78;;;21.10;40.79
48035;BME280;33812;46.480;6.834;2023-03-14T00:48:14;92676.97;;;21.06;40.66
48035;BME280;33812;46.480;6.834;2023-03-14T00:52:17;92695.66;;;21.11;40.61
48035;BME280;33812;46.480;6.834;2023-03-14T00:56:20;92699.66;;;21.10;40.59
48035;BME280;33812;46.480;6.834;2023-03-14T01:00:29;92693.06;;;21.07;40.65
48035;BME280;33812;46.480;6.834;2023-03-14T01:04:33;92695.66;;;21.11;40.69
48035;BME280;33812;46.480;6.834;2023-03-14T01:08:37;92699.66;;;21.10;40.55
48035;BME280;33812;46.480;6.834;2023-03-14T01:12:40;92710.72;;;21.10;40.59
48035;BME280;33812;46.480;6.834;2023-03-14T01:16:42;92687.84;;;21.09;40.81
48035;BME280;33812;46.480;6.834;2023-03-14T01:20:46;92694.63;;;21.08;40.48
48035;BME280;33812;46.480;6.834;2023-03-14T01:24:49;92685.25;;;21.06;40.49
48035;BME280;33812;46.480;6.834;2023-03-14T01:28:54;92684.00;;;21.07;40.51
48035;BME280;33812;46.480;6.834;2023-03-14T01:32:56;92677.25;;;21.08;40.45
48035;BME280;33812;46.480;6.834;2023-03-14T01:36:58;92675.28;;;21.08;40.16
48035;BME280;33812;46.480;6.834;2023-03-14T01:46:27;92643.81;;;21.06;40.66
48035;BME280;33812;46.480;6.834;2023-03-14T01:50:32;92631.50;;;21.07;40.21
48035;BME280;33812;46.480;6.834;2023-03-14T01:54:36;92627.22;;;21.06;40.12
48035;BME280;33812;46.480;6.834;2023-03-14T01:58:51;92610.97;;;21.08;40.11
48035;BME280;33812;46.480;6.834;2023-03-14T02:02:56;92618.94;;;21.06;40.09
48035;BME280;33812;46.480;6.834;2023-03-14T02:07:19;92605.13;;;21.06;40.14
48035;BME280;33812;46.480;6.834;2023-03-14T02:11:21;92607.91;;;21.06;40.01
48035;BME280;33812;46.480;6.834;2023-03-14T02:15:29;92610.06;;;21.01;40.18
48035;BME280;33812;46.480;6.834;2023-03-14T02:19:47;92594.56;;;21.04;40.13
48035;BME280;33812;46.480;6.834;2023-03-14T02:24:06;92568.19;;;21.03;40.45
48035;BME280;33812;46.480;6.834;2023-03-14T02:28:20;92548.38;;;21.05;40.24
48035;BME280;33812;46.480;6.834;2023-03-14T02:32:24;92526.75;;;21.03;40.24
48035;BME280;33812;46.480;6.834;2023-03-14T02:36:27;92514.91;;;21.02;40.33
48035;BME280;33812;46.480;6.834;2023-03-14T02:40:44;92500.81;;;21.00;40.21
48035;BME280;33812;46.480;6.834;2023-03-14T02:45:30;92498.03;;;21.00;40.42
48035;BME280;33812;46.480;6.834;2023-03-14T02:49:35;92506.81;;;20.99;40.23
48035;BME280;33812;46.480;6.834;2023-03-14T02:53:37;92509.88;;;21.01;40.12
48035;BME280;33812;46.480;6.834;2023-03-14T02:57:41;92511.84;;;21.00;40.26
48035;BME280;33812;46.480;6.834;2023-03-14T03:01:46;92513.38;;;21.01;40.10
48035;BME280;33812;46.480;6.834;2023-03-14T03:05:49;92480.22;;;21.01;40.25
48035;BME280;33812;46.480;6.834;2023-03-14T03:09:57;92507.09;;;21.01;39.88
48035;BME280;33812;46.480;6.834;2023-03-14T03:14:03;92475.94;;;21.00;40.05
48035;BME280;33812;46.480;6.834;2023-03-14T03:18:16;92462.13;;;21.00;40.19
48035;BME280;33812;46.480;6.834;2023-03-14T03:22:20;92486.22;;;21.00;40.08
48035;BME280;33812;46.480;6.834;2023-03-14T03:26:38;92476.41;;;20.99;40.14
48035;BME280;33812;46.480;6.834;2023-03-14T03:30:41;92477.94;;;21.00;40.27
48035;BME280;33812;46.480;6.834;2023-03-14T03:34:45;92465.84;;;20.97;40.22
48035;BME280;33812;46.480;6.834;2023-03-14T03:38:49;92441.28;;;20.99;40.10
48035;BME280;33812;46.480;6.834;2023-03-14T03:42:58;92437.44;;;20.97;40.07
48035;BME280;33812;46.480;6.834;2023-03-14T03:47:01;92427.94;;;20.98;39.91
48035;BME280;33812;46.480;6.834;2023-03-14T03:51:06;92422.44;;;20.98;40.32
48035;BME280;33812;46.480;6.834;2023-03-14T03:55:08;92425.63;;;20.96;40.04
48035;BME280;33812;46.480;6.834;2023-03-14T03:59:10;92420.09;;;20.96;40.12
48035;BME280;33812;46.480;6.834;2023-03-14T04:03:26;92424.72;;;20.99;39.95
48035;BME280;33812;46.480;6.834;2023-03-14T04:07:37;92421.66;;;20.97;39.96
48035;BME280;33812;46.480;6.834;2023-03-14T04:11:39;92409.84;;;20.97;40.07
48035;BME280;33812;46.480;6.834;2023-03-14T04:15:42;92410.59;;;20.97;40.11
48035;BME280;33812;46.480;6.834;2023-03-14T04:19:45;92414.88;;;20.98;39.87
48035;BME280;33812;46.480;6.834;2023-03-14T04:23:51;92390.03;;;20.98;40.11
48035;BME280;33812;46.480;6.834;2023-03-14T04:32:51;92351.84;;;20.97;40.21
48035;BME280;33812;46.480;6.834;2023-03-14T04:37:05;92347.84;;;20.98;40.21
48035;BME280;33812;46.480;6.834;2023-03-14T04:41:23;92336.97;;;20.94;40.14
48035;BME280;33812;46.480;6.834;2023-03-14T04:45:41;92350.63;;;20.98;40.19
48035;BME280;33812;46.480;6.834;2023-03-14T04:49:44;92336.34;;;20.99;39.98
48035;BME280;33812;46.480;6.834;2023-03-14T04:53:49;92320.50;;;21.00;40.34
48035;BME280;33812;46.480;6.834;2023-03-14T04:57:58;92307.47;;;21.00;40.54
48035;BME280;33812;46.480;6.834;2023-03-14T05:02:00;92301.47;;;21.02;40.32
48035;BME280;33812;46.480;6.834;2023-03-14T05:06:04;92291.66;;;21.01;40.33
48035;BME280;33812;46.480;6.834;2023-03-14T05:10:06;92271.56;;;21.00;40.06
48035;BME280;33812;46.480;6.834;2023-03-14T05:14:10;92255.00;;;21.00;40.10
48035;BME280;33812;46.480;6.834;2023-03-14T05:18:12;92249.66;;;20.97;40.21
48035;BME280;33812;46.480;6.834;2023-03-14T05:22:14;92244.13;;;20.97;39.74
48035;BME280;33812;46.480;6.834;2023-03-14T05:26:17;92247.19;;;20.99;39.53
48035;BME280;33812;46.480;6.834;2023-03-14T05:30:20;92238.13;;;20.98;39.58
48035;BME280;33812;46.480;6.834;2023-03-14T05:34:23;92247.94;;;20.99;39.39
48035;BME280;33812;46.480;6.834;2023-03-14T05:38:24;92259.94;;;20.96;39.55
48035;BME280;33812;46.480;6.834;2023-03-14T05:42:26;92245.22;;;20.90;39.60
48035;BME280;33812;46.480;6.834;2023-03-14T05:46:30;92248.88;;;20.96;39.61
48035;BME280;33812;46.480;6.834;2023-03-14T05:50:32;92264.53;;;20.99;40.18
48035;BME280;33812;46.480;6.834;2023-03-14T05:54:34;92255.47;;;20.99;40.75
48035;BME280;33812;46.480;6.834;2023-03-14T05:58:36;92261.75;;;20.99;40.37
48035;BME280;33812;46.480;6.834;2023-03-14T06:02:40;92257.75;;;21.00;40.32
48035;BME280;33812;46.480;6.834;2023-03-14T06:06:48;92255.00;;;21.00;40.52
48035;BME280;33812;46.480;6.834;2023-03-14T06:10:50;92275.09;;;21.01;40.23
48035;BME280;33812;46.480;6.834;2023-03-14T06:15:02;92280.63;;;21.01;39.96
48035;BME280;33812;46.480;6.834;2023-03-14T06:19:26;92279.56;;;20.98;40.32
48035;BME280;33812;46.480;6.834;2023-03-14T06:23:28;92287.38;;;21.00;40.46
48035;BME280;33812;46.480;6.834;2023-03-14T06:27:46;92285.38;;;21.00;40.87
48035;BME280;33812;46.480;6.834;2023-03-14T06:31:50;92302.25;;;21.02;40.71
48035;BME280;33812;46.480;6.834;2023-03-14T06:35:58;92301.34;;;20.72;37.43
48035;BME280;33812;46.480;6.834;2023-03-14T06:40:01;92298.94;;;20.89;40.60
48035;BME280;33812;46.480;6.834;2023-03-14T06:44:14;92307.78;;;20.93;40.22
48035;BME280;33812;46.480;6.834;2023-03-14T06:48:18;92313.94;;;20.97;40.21
48035;BME280;33812;46.480;6.834;2023-03-14T06:52:30;92318.22;;;20.98;40.39
48035;BME280;33812;46.480;6.834;2023-03-14T06:56:32;92319.47;;;20.97;39.91
48035;BME280;33812;46.480;6.834;2023-03-14T07:00:35;92320.69;;;20.96;39.44
48035;BME280;33812;46.480;6.834;2023-03-14T07:04:37;92327.75;;;20.97;39.70
48035;BME280;33812;46.480;6.834;2023-03-14T07:08:40;92324.22;;;20.97;39.63
48035;BME280;33812;46.480;6.834;2023-03-14T07:12:44;92338.50;;;20.95;39.91
48035;BME280;33812;46.480;6.834;2023-03-14T07:16:46;92340.78;;;20.97;39.60
48035;BME280;33812;46.480;6.834;2023-03-14T07:20:48;92342.03;;;20.96;39.04
48035;BME280;33812;46.480;6.834;2023-03-14T07:24:51;92347.41;;;20.90;38.85
48035;BME280;33812;46.480;6.834;2023-03-14T07:28:52;92370.13;;;20.94;39.01
48035;BME280;33812;46.480;6.834;2023-03-14T07:32:54;92374.41;;;20.95;38.27
48035;BME280;33812;46.480;6.834;2023-03-14T07:36:56;92372.56;;;20.92;38.97
48035;BME280;33812;46.480;6.834;2023-03-14T07:40:59;92379.59;;;20.93;38.42
48035;BME280;33812;46.480;6.834;2023-03-14T07:45:02;92387.13;;;20.93;39.05
48035;BME280;33812;46.480;6.834;2023-03-14T07:49:04;92387.88;;;20.93;39.06
48035;BME280;33812;46.480;6.834;2023-03-14T07:53:06;92402.94;;;20.92;38.38
48035;BME280;33812;46.480;6.834;2023-03-14T07:57:09;92404.16;;;20.91;38.40
48035;BME280;33812;46.480;6.834;2023-03-14T08:01:10;92414.75;;;20.93;38.45
48035;BME280;33812;46.480;6.834;2023-03-14T08:05:12;92416.31;;;20.94;38.83
48035;BME280;33812;46.480;6.834;2023-03-14T08:09:14;92415.50;;;20.93;38.56
48035;BME280;33812;46.480;6.834;2023-03-14T08:13:17;92417.06;;;20.94;38.98
48035;BME280;33812;46.480;6.834;2023-03-14T08:17:19;92430.88;;;20.94;38.76
48035;BME280;33812;46.480;6.834;2023-03-14T08:21:21;92430.25;;;20.90;39.04
48035;BME280;33812;46.480;6.834;2023-03-14T08:25:25;92421.81;;;20.94;39.40
48035;BME280;33812;46.480;6.834;2023-03-14T08:29:30;92435.94;;;20.96;38.79
48035;BME280;33812;46.480;6.834;2023-03-14T08:33:33;92442.19;;;20.96;39.14
48035;BME280;33812;46.480;6.834;2023-03-14T08:37:35;92439.00;;;20.98;39.08
48035;BME280;33812;46.480;6.834;2023-03-14T08:41:37;92465.06;;;20.97;38.95
48035;BME280;33812;46.480;6.834;2023-03-14T08:45:42;92456.31;;;20.98;39.06
48035;BME280;33812;46.480;6.834;2023-03-14T08:49:44;92474.13;;;20.97;39.06
48035;BME280;33812;46.480;6.834;2023-03-14T08:53:46;92458.78;;;20.96;39.33
48035;BME280;33812;46.480;6.834;2023-03-14T08:57:48;92464.59;;;20.98;38.91
48035;BME280;33812;46.480;6.834;2023-03-14T09:01:51;92484.72;;;20.99;39.29
48035;BME280;33812;46.480;6.834;2023-03-14T09:05:53;92481.94;;;20.99;39.12
48035;BME280;33812;46.480;6.834;2023-03-14T09:09:56;92498.50;;;20.99;39.31
48035;BME280;33812;46.480;6.834;2023-03-14T09:13:57;92500.50;;;20.98;38.96
48035;BME280;33812;46.480;6.834;2023-03-14T09:18:01;92510.03;;;20.97;39.25
48035;BME280;33812;46.480;6.834;2023-03-14T09:22:03;92521.09;;;20.97;39.15
48035;BME280;33812;46.480;6.834;2023-03-14T09:26:05;92527.81;;;20.96;39.26
48035;BME280;33812;46.480;6.834;2023-03-14T09:30:08;92546.72;;;20.98;39.10
48035;BME280;33812;46.480;6.834;2023-03-14T09:34:16;92536.88;;;20.97;39.51
48035;BME280;33812;46.480;6.834;2023-03-14T09:38:18;92561.75;;;20.97;38.83
48035;BME280;33812;46.480;6.834;2023-03-14T09:42:24;92573.09;;;20.99;38.82
48035;BME280;33812;46.480;6.834;2023-03-14T09:46:29;92577.53;;;20.96;38.81
48035;BME280;33812;46.480;6.834;2023-03-14T09:50:41;92570.03;;;20.97;38.91
48035;BME280;33812;46.480;6.834;2023-03-14T09:54:47;92592.13;;;20.97;38.63
48035;BME280;33812;46.480;6.834;2023-03-14T09:58:53;92610.41;;;20.94;38.57
48035;BME280;33812;46.480;6.834;2023-03-14T10:02:59;92613.16;;;20.94;37.92
48035;BME280;33812;46.480;6.834;2023-03-14T10:07:05;92628.97;;;20.94;37.84
48035;BME280;33812;46.480;6.834;2023-03-14T10:11:13;92645.53;;;20.94;37.13
48035;BME280;33812;46.480;6.834;2023-03-14T10:15:24;92641.22;;;20.93;37.29
48035;BME280;33812;46.480;6.834;2023-03-14T10:19:26;92644.41;;;20.91;36.68
48035;BME280;33812;46.480;6.834;2023-03-14T10:23:34;92655.47;;;20.91;36.91
48035;BME280;33812;46.480;6.834;2023-03-14T10:27:37;92657.94;;;20.89;36.31
48035;BME280;33812;46.480;6.834;2023-03-14T10:31:52;92679.75;;;20.87;36.11
48035;BME280;33812;46.480;6.834;2023-03-14T10:36:00;92697.22;;;20.84;36.20
48035;BME280;33812;46.480;6.834;2023-03-14T10:40:19;92709.81;;;20.85;36.55
48035;BME280;33812;46.480;6.834;2023-03-14T10:44:24;92720.84;;;20.85;36.95
48035;BME280;33812;46.480;6.834;2023-03-14T10:48:33;92735.44;;;20.85;37.48
48035;BME280;33812;46.480;6.834;2023-03-14T10:52:52;92727.00;;;20.80;36.41
48035;BME280;33812;46.480;6.834;2023-03-14T10:57:04;92735.59;;;20.82;35.68
48035;BME280;33812;46.480;6.834;2023-03-14T11:01:29;92738.34;;;20.82;35.09
48035;BME280;33812;46.480;6.834;2023-03-14T11:05:43;92733.75;;;20.78;35.63
48035;BME280;33812;46.480;6.834;2023-03-14T11:09:53;92736.94;;;20.77;34.96
48035;BME280;33812;46.480;6.834;2023-03-14T11:14:07;92743.41;;;20.74;35.10
48035;BME280;33812;46.480;6.834;2023-03-14T11:18:39;92771.78;;;20.74;34.85
48035;BME280;33812;46.480;6.834;2023-03-14T11:22:48;92768.88;;;20.78;35.19
48035;BME280;33812;46.480;6.834;2023-03-14T11:26:55;92789.41;;;20.77;35.44
48035;BME280;33812;46.480;6.834;2023-03-14T11:31:08;92804.91;;;20.74;36.30
48035;BME280;33812;46.480;6.834;2023-03-14T11:35:24;92826.84;;;20.78;36.10
48035;BME280;33812;46.480;6.834;2023-03-14T11:39:37;92815.81;;;20.78;36.00
48035;BME280;33812;46.480;6.834;2023-03-14T11:43:51;92846.19;;;20.78;35.94
48035;BME280;33812;46.480;6.834;2023-03-14T11:48:07;92881.63;;;20.80;36.80
48035;BME280;33812;46.480;6.834;2023-03-14T11:52:21;92935.34;;;20.78;37.13
48035;BME280;33812;46.480;6.834;2023-03-14T11:56:29;92962.03;;;20.82;37.56
48035;BME280;33812;46.480;6.834;2023-03-14T12:00:42;92986.88;;;20.82;37.68
48035;BME280;33812;46.480;6.834;2023-03-14T12:05:14;93001.00;;;20.84;38.39
48035;BME280;33812;46.480;6.834;2023-03-14T12:09:23;93004.97;;;20.83;38.34
48035;BME280;33812;46.480;6.834;2023-03-14T12:13:37;93005.31;;;20.85;38.38
48035;BME280;33812;46.480;6.834;2023-03-14T12:17:41;93019.09;;;20.85;38.81
48035;BME280;33812;46.480;6.834;2023-03-14T12:21:55;93036.13;;;20.83;39.14
48035;BME280;33812;46.480;6.834;2023-03-14T12:26:26;93031.69;;;20.86;39.58
48035;BME280;33812;46.480;6.834;2023-03-14T12:30:31;93035.22;;;20.86;39.16
48035;BME280;33812;46.480;6.834;2023-03-14T12:34:51;93039.69;;;20.84;38.25
48035;BME280;33812;46.480;6.834;2023-03-14T12:39:17;93044.88;;;20.82;38.28
48035;BME280;33812;46.480;6.834;2023-03-14T12:43:29;93035.34;;;20.83;38.33
48035;BME280;33812;46.480;6.834;2023-03-14T12:47:52;93019.84;;;20.76;38.17
48035;BME280;33812;46.480;6.834;2023-03-14T12:52:10;93021.38;;;20.77;38.29
48035;BME280;33812;46.480;6.834;2023-03-14T12:56:48;92999.59;;;20.79;37.63
48035;BME280;33812;46.480;6.834;2023-03-14T13:00:55;92994.38;;;20.81;37.75
48035;BME280;33812;46.480;6.834;2023-03-14T13:05:03;92982.56;;;20.81;37.54
48035;BME280;33812;46.480;6.834;2023-03-14T13:09:48;92969.84;;;20.83;37.25
48035;BME280;33812;46.480;6.834;2023-03-14T13:13:57;92960.47;;;20.81;37.34
48035;BME280;33812;46.480;6.834;2023-03-14T13:18:03;92958.66;;;20.87;37.54
48035;BME280;33812;46.480;6.834;2023-03-14T13:22:24;92943.47;;;20.92;37.88
48035;BME280;33812;46.480;6.834;2023-03-14T13:26:34;92931.66;;;20.91;38.13
48035;BME280;33812;46.480;6.834;2023-03-14T13:30:44;92931.66;;;20.91;38.17
48035;BME280;33812;46.480;6.834;2023-03-14T13:34:48;92935.41;;;20.97;38.15
48035;BME280;33812;46.480;6.834;2023-03-14T13:38:56;92931.41;;;20.98;38.32
48035;BME280;33812;46.480;6.834;2023-03-14T13:43:04;92930.94;;;21.00;38.41
48035;BME280;33812;46.480;6.834;2023-03-14T13:47:13;92917.13;;;21.00;38.53
48035;BME280;33812;46.480;6.834;2023-03-14T13:51:23;92928.19;;;21.00;38.34
48035;BME280;33812;46.480;6.834;2023-03-14T13:55:29;92930.94;;;21.00;38.37
48035;BME280;33812;46.480;6.834;2023-03-14T13:59:37;92915.13;;;21.00;38.33
48035;BME280;33812;46.480;6.834;2023-03-14T14:03:42;92927.44;;;20.99;38.28
48035;BME280;33812;46.480;6.834;2023-03-14T14:07:44;92938.47;;;20.99;38.39
48035;BME280;33812;46.480;6.834;2023-03-14T14:11:48;92948.28;;;21.00;37.89
48035;BME280;33812;46.480;6.834;2023-03-14T14:15:52;92952.28;;;20.99;37.71
48035;BME280;33812;46.480;6.834;2023-03-14T14:19:57;92949.53;;;20.99;37.73
48035;BME280;33812;46.480;6.834;2023-03-14T14:24:00;92947.97;;;20.98;37.29
48035;BME280;33812;46.480;6.834;2023-03-14T14:28:15;92934.47;;;21.00;37.84
48035;BME280;33812;46.480;6.834;2023-03-14T14:32:17;92941.25;;;20.99;37.90
48035;BME280;33812;46.480;6.834;2023-03-14T14:36:22;92951.50;;;20.99;37.23
48035;BME280;33812;46.480;6.834;2023-03-14T14:40:27;92957.50;;;20.97;37.15
48035;BME280;33812;46.480;6.834;2023-03-14T14:44:30;92976.06;;;20.97;36.89
48035;BME280;33812;46.480;6.834;2023-03-14T14:48:37;92989.88;;;20.97;37.11
48035;BME280;33812;46.480;6.834;2023-03-14T14:52:42;93008.00;;;20.98;37.11
48035;BME280;33812;46.480;6.834;2023-03-14T14:56:49;92997.69;;;20.98;37.06
48035;BME280;33812;46.480;6.834;2023-03-14T15:00:54;92996.94;;;20.98;37.42
48035;BME280;33812;46.480;6.834;2023-03-14T15:04:57;92997.09;;;20.94;36.83
48035;BME280;33812;46.480;6.834;2023-03-14T15:09:00;93000.13;;;20.96;37.10
48035;BME280;33812;46.480;6.834;2023-03-14T15:13:02;93005.38;;;20.94;36.31
48035;BME280;33812;46.480;6.834;2023-03-14T15:17:05;93005.03;;;20.92;35.28
48035;BME280;33812;46.480;6.834;2023-03-14T15:21:08;93017.00;;;20.89;34.93
48035;BME280;33812;46.480;6.834;2023-03-14T15:25:12;93027.13;;;20.92;35.69
48035;BME280;33812;46.480;6.834;2023-03-14T15:29:14;93020.03;;;20.91;35.28
48035;BME280;33812;46.480;6.834;2023-03-14T15:33:16;93017.75;;;20.89;35.71
48035;BME280;33812;46.480;6.834;2023-03-14T15:37:18;93017.75;;;20.89;36.67
48035;BME280;33812;46.480;6.834;2023-03-14T15:41:23;93018.50;;;20.90;36.84
48035;BME280;33812;46.480;6.834;2023-03-14T15:45:24;93020.03;;;20.91;36.93
48035;BME280;33812;46.480;6.834;2023-03-14T15:49:26;93022.81;;;20.91;37.06
48035;BME280;33812;46.480;6.834;2023-03-14T15:53:28;93019.28;;;20.90;36.71
48035;BME280;33812;46.480;6.834;2023-03-14T15:57:31;93016.22;;;20.88;36.42
48035;BME280;33812;46.480;6.834;2023-03-14T16:01:33;93017.00;;;20.89;36.81
48035;BME280;33812;46.480;6.834;2023-03-14T16:05:35;93023.41;;;20.86;36.85
48035;BME280;33812;46.480;6.834;2023-03-14T16:09:37;93038.75;;;20.87;36.67
48035;BME280;33812;46.480;6.834;2023-03-14T16:13:40;93037.53;;;20.88;36.25
48035;BME280;33812;46.480;6.834;2023-03-14T16:17:42;93043.06;;;20.88;36.57
48035;BME280;33812;46.480;6.834;2023-03-14T16:21:44;93054.09;;;20.88;36.26
48035;BME280;33812;46.480;6.834;2023-03-14T16:25:46;93061.19;;;20.89;36.92
48035;BME280;33812;46.480;6.834;2023-03-14T16:29:49;93066.69;;;20.89;36.89
48035;BME280;33812;46.480;6.834;2023-03-14T16:33:52;93065.16;;;20.88;36.47
48035;BME280;33812;46.480;6.834;2023-03-14T16:37:54;93074.22;;;20.88;37.01
48035;BME280;33812;46.480;6.834;2023-03-14T16:41:56;93076.06;;;20.92;37.25
48035;BME280;33812;46.480;6.834;2023-03-14T16:46:02;93077.63;;;20.93;36.82
48035;BME280;33812;46.480;6.834;2023-03-14T16:50:04;93083.56;;;20.91;37.18
48035;BME280;33812;46.480;6.834;2023-03-14T16:54:06;93098.94;;;20.92;37.38
48035;BME280;33812;46.480;6.834;2023-03-14T16:58:09;93096.75;;;20.87;37.98
48035;BME280;33812;46.480;6.834;2023-03-14T17:02:12;93112.41;;;20.90;37.78
48035;BME280;33812;46.480;6.834;2023-03-14T17:06:16;93106.91;;;20.90;37.64
48035;BME280;33812;46.480;6.834;2023-03-14T17:10:19;93117.94;;;20.90;37.10
48035;BME280;33812;46.480;6.834;2023-03-14T17:14:22;93133.75;;;20.89;36.62
48035;BME280;33812;46.480;6.834;2023-03-14T17:18:29;93136.97;;;20.88;37.42
48035;BME280;33812;46.480;6.834;2023-03-14T17:22:31;93139.25;;;20.89;37.60
48035;BME280;33812;46.480;6.834;2023-03-14T17:26:33;93138.50;;;20.89;38.11
48035;BME280;33812;46.480;6.834;2023-03-14T17:30:35;93138.50;;;20.89;38.81
48035;BME280;33812;46.480;6.834;2023-03-14T17:34:40;93147.09;;;20.91;39.54
48035;BME280;33812;46.480;6.834;2023-03-14T17:38:42;93162.13;;;20.90;39.26
48035;BME280;33812;46.480;6.834;2023-03-14T17:42:45;93181.16;;;20.88;39.78
48035;BME280;33812;46.480;6.834;2023-03-14T17:46:46;93186.66;;;20.88;39.74
48035;BME280;33812;46.480;6.834;2023-03-14T17:50:51;93198.03;;;20.90;40.07
48035;BME280;33812;46.480;6.834;2023-03-14T17:54:53;93207.88;;;20.91;40.04
48035;BME280;33812;46.480;6.834;2023-03-14T17:58:55;93212.63;;;20.90;39.96
48035;BME280;33812;46.480;6.834;2023-03-14T18:02:57;93217.72;;;20.92;40.61
48035;BME280;33812;46.480;6.834;2023-03-14T18:07:00;93220.59;;;20.88;40.98
48035;BME280;33812;46.480;6.834;2023-03-14T18:11:02;93221.38;;;20.89;40.40
48035;BME280;33812;46.480;6.834;2023-03-14T18:15:06;93229.22;;;20.90;39.73
48035;BME280;33812;46.480;6.834;2023-03-14T18:19:08;93239.94;;;20.88;39.56
48035;BME280;33812;46.480;6.834;2023-03-14T18:23:15;93243.47;;;20.89;39.55
48035;BME280;33812;46.480;6.834;2023-03-14T18:27:17;93253.75;;;20.88;38.08
48035;BME280;33812;46.480;6.834;2023-03-14T18:31:19;93259.38;;;20.85;37.14
48035;BME280;33812;46.480;6.834;2023-03-14T18:35:24;93261.81;;;20.83;36.74
48035;BME280;33812;46.480;6.834;2023-03-14T18:39:28;93268.38;;;20.76;37.38
48035;BME280;33812;46.480;6.834;2023-03-14T18:43:30;93280.81;;;20.81;37.10
48035;BME280;33812;46.480;6.834;2023-03-14T18:47:32;93286.69;;;20.83;37.14
48035;BME280;33812;46.480;6.834;2023-03-14T18:51:36;93292.66;;;20.81;36.20
48035;BME280;33812;46.480;6.834;2023-03-14T18:55:39;93300.50;;;20.83;37.88
48035;BME280;33812;46.480;6.834;2023-03-14T18:59:41;93300.03;;;20.84;37.97
48035;BME280;33812;46.480;6.834;2023-03-14T19:03:44;93310.63;;;20.86;37.95
48035;BME280;33812;46.480;6.834;2023-03-14T19:07:46;93310.56;;;20.76;37.86
48035;BME280;33812;46.480;6.834;2023-03-14T19:11:49;93309.34;;;20.77;38.03
48035;BME280;33812;46.480;6.834;2023-03-14T19:15:52;93301.38;;;20.80;38.22
48035;BME280;33812;46.480;6.834;2023-03-14T19:19:54;93317.19;;;20.79;37.79
48035;BME280;33812;46.480;6.834;2023-03-14T19:23:57;93323.03;;;20.81;37.74
48035;BME280;33812;46.480;6.834;2023-03-14T19:28:01;93319.50;;;20.81;38.64
48035;BME280;33812;46.480;6.834;2023-03-14T19:32:04;93325.00;;;20.81;38.35
48035;BME280;33812;46.480;6.834;2023-03-14T19:36:06;93319.56;;;20.54;32.66
48035;BME280;33812;46.480;6.834;2023-03-14T19:40:09;93320.75;;;20.66;37.68
48035;BME280;33812;46.480;6.834;2023-03-14T19:44:13;93319.75;;;20.73;38.00
48035;BME280;33812;46.480;6.834;2023-03-14T19:48:14;93328.03;;;20.73;37.04
48035;BME280;33812;46.480;6.834;2023-03-14T19:52:16;93331.09;;;20.75;37.21
48035;BME280;33812;46.480;6.834;2023-03-14T19:56:18;93328.69;;;20.77;37.20
48035;BME280;33812;46.480;6.834;2023-03-14T20:00:24;93340.94;;;20.76;37.86
48035;BME280;33812;46.480;6.834;2023-03-14T20:04:26;93345.69;;;20.76;38.24
48035;BME280;33812;46.480;6.834;2023-03-14T20:08:28;93346.47;;;20.76;38.09
48035;BME280;33812;46.480;6.834;2023-03-14T20:12:30;93350.00;;;20.77;38.18
48035;BME280;33812;46.480;6.834;2023-03-14T20:16:35;93355.97;;;20.75;38.18
48035;BME280;33812;46.480;6.834;2023-03-14T20:20:38;93355.22;;;20.75;38.17
48035;BME280;33812;46.480;6.834;2023-03-14T20:24:40;93355.50;;;20.77;39.41
48035;BME280;33812;46.480;6.834;2023-03-14T20:28:42;93352.75;;;20.77;41.03
48035;BME280;33812;46.480;6.834;2023-03-14T20:32:47;93370.09;;;20.77;41.75
48035;BME280;33812;46.480;6.834;2023-03-14T20:36:50;93359.84;;;20.78;42.82
48035;BME280;33812;46.480;6.834;2023-03-14T20:40:54;93367.34;;;20.77;43.00
48035;BME280;33812;46.480;6.834;2023-03-14T20:44:56;93370.09;;;20.77;42.90
48035;BME280;33812;46.480;6.834;2023-03-14T20:48:59;93362.16;;;20.80;43.42
48035;BME280;33812;46.480;6.834;2023-03-14T20:53:02;93370.88;;;20.78;43.22
48035;BME280;33812;46.480;6.834;2023-03-14T20:57:04;93376.41;;;20.78;43.59
48035;BME280;33812;46.480;6.834;2023-03-14T21:01:05;93368.13;;;20.78;43.27
48035;BME280;33812;46.480;6.834;2023-03-14T21:05:09;93369.31;;;20.77;42.55
48035;BME280;33812;46.480;6.834;2023-03-14T21:09:12;93382.81;;;20.75;42.32
48035;BME280;33812;46.480;6.834;2023-03-14T21:13:14;93372.91;;;20.64;43.14
48035;BME280;33812;46.480;6.834;2023-03-14T21:17:16;93372.22;;;20.73;41.31
48035;BME280;33812;46.480;6.834;2023-03-14T21:21:19;93375.75;;;20.74;40.94
48035;BME280;33812;46.480;6.834;2023-03-14T21:25:21;93381.59;;;20.76;41.11
48035;BME280;33812;46.480;6.834;2023-03-14T21:29:23;93382.81;;;20.75;41.30
48035;BME280;33812;46.480;6.834;2023-03-14T21:33:25;93376.53;;;20.74;41.06
48035;BME280;33812;46.480;6.834;2023-03-14T21:37:28;93372.22;;;20.73;41.68
48035;BME280;33812;46.480;6.834;2023-03-14T21:41:30;93366.69;;;20.73;41.51
48035;BME280;33812;46.480;6.834;2023-03-14T21:45:31;93366.69;;;20.73;41.35
48035;BME280;33812;46.480;6.834;2023-03-14T21:49:36;93366.69;;;20.73;40.87
48035;BME280;33812;46.480;6.834;2023-03-14T21:53:39;93360.06;;;20.71;40.95